createdAt,value
2019-05-26T00:02:30.185Z,78.08
2019-05-26T00:05:02.760Z,78.07
2019-05-26T00:07:35.415Z,77.81
2019-05-26T00:10:10.197Z,78.12
2019-05-26T00:12:42.843Z,78.28
2019-05-26T00:15:15.356Z,78.09
2019-05-26T00:17:47.674Z,78.20
2019-05-26T00:20:19.899Z,78.30
2019-05-26T00:22:53.575Z,78.35
2019-05-26T00:25:25.767Z,78.65
2019-05-26T00:27:57.934Z,78.45
2019-05-26T00:30:30.378Z,78.79
2019-05-26T00:33:02.717Z,79.08
2019-05-26T00:35:35.217Z,79.18
2019-05-26T00:38:07.647Z,79.13
2019-05-26T00:40:39.972Z,79.12
2019-05-26T00:43:12.392Z,79.02
2019-05-26T00:45:44.468Z,79.22
2019-05-26T00:48:16.867Z,79.33
2019-05-26T00:50:49.159Z,79.49
2019-05-26T00:53:21.491Z,79.50
2019-05-26T00:55:53.779Z,79.52
2019-05-26T00:58:25.923Z,79.43
2019-05-26T01:00:58.085Z,79.45
2019-05-26T01:03:30.329Z,79.52
2019-05-26T01:06:02.625Z,79.62
2019-05-26T01:08:34.893Z,79.78
2019-05-26T01:11:07.157Z,79.87
2019-05-26T01:13:39.626Z,79.91
2019-05-26T01:16:11.834Z,79.89
2019-05-26T01:18:44.082Z,79.79
2019-05-26T01:21:16.224Z,79.85
2019-05-26T01:23:48.500Z,79.77
2019-05-26T01:26:20.594Z,79.84
2019-05-26T01:28:52.881Z,79.69
2019-05-26T01:31:25.178Z,79.39
2019-05-26T01:33:57.640Z,79.29
2019-05-26T01:36:30.432Z,79.77
2019-05-26T01:39:04.305Z,79.27
2019-05-26T01:41:36.641Z,79.23
2019-05-26T01:44:08.989Z,79.49
2019-05-26T01:46:41.274Z,79.68
2019-05-26T01:49:13.719Z,80.14
2019-05-26T01:51:46.105Z,80.26
2019-05-26T01:54:18.568Z,80.36
2019-05-26T01:56:50.826Z,80.08
2019-05-26T01:59:24.232Z,79.89
2019-05-26T02:01:58.755Z,79.79
2019-05-26T02:04:30.426Z,79.70
2019-05-26T02:07:02.654Z,79.61
2019-05-26T02:09:34.969Z,79.50
2019-05-26T02:12:07.378Z,79.20
2019-05-26T02:14:39.650Z,79.00
2019-05-26T02:17:11.927Z,78.76
2019-05-26T02:19:44.696Z,78.05
2019-05-26T02:22:17.087Z,77.73
2019-05-26T02:24:49.416Z,78.09
2019-05-26T02:27:21.723Z,78.43
2019-05-26T02:29:54.069Z,78.56
2019-05-26T02:32:26.390Z,78.59
2019-05-26T02:34:58.867Z,78.91
2019-05-26T02:37:31.276Z,79.35
2019-05-26T02:40:04.981Z,79.22
2019-05-26T02:42:37.420Z,79.46
2019-05-26T02:45:11.134Z,79.58
2019-05-26T02:47:43.802Z,79.52
2019-05-26T02:50:17.971Z,79.71
2019-05-26T02:52:50.485Z,79.77
2019-05-26T02:55:23.995Z,79.82
2019-05-26T02:57:56.254Z,79.89
2019-05-26T03:00:45.847Z,80.13
2019-05-26T03:03:17.451Z,80.30
2019-05-26T03:05:49.415Z,80.40
2019-05-26T03:08:23.252Z,80.40
2019-05-26T03:10:57.103Z,80.20
2019-05-26T03:13:31.599Z,80.17
2019-05-26T03:16:05.896Z,79.97
2019-05-26T03:18:41.436Z,79.84
2019-05-26T03:21:14.279Z,79.93
2019-05-26T03:23:49.742Z,79.64
2019-05-26T03:26:23.564Z,79.22
2019-05-26T03:28:55.915Z,79.31
2019-05-26T03:31:28.179Z,79.27
2019-05-26T03:34:00.523Z,78.93
2019-05-26T03:36:32.893Z,78.96
2019-05-26T03:39:08.556Z,78.68
2019-05-26T03:41:41.227Z,78.57
2019-05-26T03:44:13.286Z,78.61
2019-05-26T03:46:45.417Z,78.55
2019-05-26T03:49:17.616Z,78.37
2019-05-26T03:51:49.938Z,78.21
2019-05-26T03:54:22.371Z,78.09
2019-05-26T03:56:54.617Z,77.65
2019-05-26T03:59:26.845Z,77.80
2019-05-26T04:01:59.293Z,77.65
2019-05-26T04:04:32.567Z,77.72
2019-05-26T04:07:04.991Z,77.82
2019-05-26T04:09:37.187Z,77.62
2019-05-26T04:12:09.482Z,77.82
2019-05-26T04:14:41.677Z,78.09
2019-05-26T04:17:14.287Z,78.20
2019-05-26T04:19:46.608Z,78.33
2019-05-26T04:22:18.866Z,78.40
2019-05-26T04:24:51.227Z,78.62
2019-05-26T04:27:23.504Z,79.30
2019-05-26T04:29:55.509Z,79.24
2019-05-26T04:32:27.850Z,79.24
2019-05-26T04:35:00.021Z,79.16
2019-05-26T04:37:32.408Z,79.61
2019-05-26T04:40:25.133Z,79.59
2019-05-26T04:42:41.810Z,79.75
2019-05-26T04:45:15.254Z,79.92
2019-05-26T04:47:47.804Z,79.74
2019-05-26T04:50:20.007Z,79.79
2019-05-26T04:53:05.599Z,79.58
2019-05-26T04:55:26.511Z,79.45
2019-05-26T04:57:59.022Z,79.26
2019-05-26T05:00:31.394Z,79.28
2019-05-26T05:03:03.779Z,79.22
2019-05-26T05:05:38.449Z,78.88
2019-05-26T05:08:11.916Z,78.69
2019-05-26T05:10:44.348Z,78.26
2019-05-26T05:13:16.625Z,78.26
2019-05-26T05:15:49.019Z,77.59
2019-05-26T05:18:21.398Z,76.97
2019-05-26T05:20:53.666Z,76.68
2019-05-26T05:23:25.958Z,75.77
2019-05-26T05:25:58.384Z,76.17
2019-05-26T05:28:30.781Z,75.88
2019-05-26T05:31:02.929Z,75.04
2019-05-26T05:33:35.249Z,74.31
2019-05-26T05:36:08.464Z,74.48
2019-05-26T05:38:40.919Z,73.94
2019-05-26T05:41:13.365Z,74.25
2019-05-26T05:43:45.713Z,73.68
2019-05-26T05:46:19.011Z,73.78
2019-05-26T05:48:51.336Z,73.60
2019-05-26T05:51:23.711Z,73.25
2019-05-26T05:53:56.221Z,73.21
2019-05-26T05:56:28.504Z,72.69
2019-05-26T05:59:00.911Z,72.39
2019-05-26T06:01:33.107Z,72.50
2019-05-26T06:04:05.474Z,71.70
2019-05-26T06:06:37.799Z,71.34
2019-05-26T06:09:09.993Z,72.04
2019-05-26T06:11:42.137Z,72.06
2019-05-26T06:14:14.373Z,71.39
2019-05-26T06:16:46.724Z,70.78
2019-05-26T06:19:18.979Z,70.75
2019-05-26T06:21:51.482Z,71.09
2019-05-26T06:24:23.827Z,70.28
2019-05-26T06:26:56.160Z,70.94
2019-05-26T06:29:28.522Z,71.25
2019-05-26T06:32:01.182Z,71.96
2019-05-26T06:34:33.808Z,71.77
2019-05-26T06:37:06.056Z,71.77
2019-05-26T06:39:38.295Z,72.21
2019-05-26T06:42:12.962Z,72.43
2019-05-26T06:44:53.432Z,72.28
2019-05-26T06:47:19.847Z,70.29
2019-05-26T06:49:52.176Z,70.55
2019-05-26T06:52:24.532Z,70.81
2019-05-26T06:54:56.926Z,70.99
2019-05-26T06:57:29.261Z,70.30
2019-05-26T07:00:01.548Z,70.53
2019-05-26T07:02:33.961Z,70.69
2019-05-26T07:05:08.748Z,69.73
2019-05-26T07:07:41.095Z,69.09
2019-05-26T07:10:14.040Z,69.24
2019-05-26T07:12:47.516Z,69.50
2019-05-26T07:15:19.999Z,68.44
2019-05-26T07:17:52.552Z,68.69
2019-05-26T07:20:24.968Z,67.92
2019-05-26T07:22:57.185Z,67.74
2019-05-26T07:25:29.498Z,67.55
2019-05-26T07:28:01.607Z,66.59
2019-05-26T07:30:33.846Z,66.84
2019-05-26T07:33:06.162Z,66.20
2019-05-26T07:35:38.407Z,65.63
2019-05-26T07:38:11.704Z,64.64
2019-05-26T07:40:44.198Z,63.54
2019-05-26T07:43:16.579Z,63.10
2019-05-26T07:48:26.402Z,63.53
2019-05-26T07:50:58.800Z,63.16
2019-05-26T07:53:31.211Z,63.32
2019-05-26T07:56:03.541Z,64.05
2019-05-26T07:58:35.837Z,64.16
2019-05-26T08:01:08.024Z,63.37
2019-05-26T08:03:40.305Z,62.81
2019-05-26T08:06:13.501Z,62.44
2019-05-26T08:08:45.769Z,61.83
2019-05-26T08:11:18.178Z,60.72
2019-05-26T08:13:50.418Z,60.75
2019-05-26T08:16:22.680Z,58.30
2019-05-26T08:18:54.908Z,58.30
2019-05-26T08:21:27.102Z,57.52
2019-05-26T08:23:59.184Z,59.04
2019-05-26T08:26:31.474Z,59.64
2019-05-26T08:29:03.797Z,59.04
2019-05-26T08:31:36.099Z,57.98
2019-05-26T08:34:08.351Z,57.30
2019-05-26T08:36:40.706Z,57.24
2019-05-26T08:39:12.990Z,57.26
2019-05-26T08:41:46.171Z,58.57
2019-05-26T08:44:18.316Z,59.12
2019-05-26T08:46:50.610Z,58.52
2019-05-26T08:49:22.696Z,59.78
2019-05-26T08:51:55.015Z,61.22
2019-05-26T08:54:27.252Z,64.30
2019-05-26T08:56:59.541Z,63.37
2019-05-26T08:59:31.873Z,62.98
2019-05-26T09:02:04.513Z,62.61
2019-05-26T09:04:36.680Z,61.92
2019-05-26T09:07:08.968Z,59.25
2019-05-26T09:09:43.734Z,59.88
2019-05-26T09:12:16.125Z,59.22
2019-05-26T09:14:48.684Z,59.11
2019-05-26T09:17:21.107Z,61.25
2019-05-26T09:19:53.216Z,60.47
2019-05-26T09:22:25.464Z,60.46
2019-05-26T09:24:57.571Z,60.37
2019-05-26T09:27:29.775Z,60.44
2019-05-26T09:30:02.019Z,58.47
2019-05-26T09:32:35.360Z,61.72
2019-05-26T09:35:08.357Z,63.90
2019-05-26T09:37:40.587Z,66.17
2019-05-26T09:40:14.174Z,65.86
2019-05-26T09:42:46.491Z,66.16
2019-05-26T09:45:19.189Z,66.65
2019-05-26T09:47:51.475Z,67.56
2019-05-26T09:50:23.773Z,69.02
2019-05-26T09:52:56.688Z,69.88
2019-05-26T09:55:31.138Z,74.04
2019-05-26T09:58:06.704Z,74.81
2019-05-26T10:00:44.329Z,74.40
2019-05-26T10:03:17.375Z,74.46
2019-05-26T10:05:49.711Z,76.29
2019-05-26T10:08:21.915Z,76.19
2019-05-26T10:10:54.032Z,75.49
2019-05-26T10:13:31.843Z,74.20
2019-05-26T10:16:00.309Z,72.78
2019-05-26T10:18:32.457Z,71.34
2019-05-26T10:21:04.990Z,70.45
2019-05-26T10:23:37.488Z,67.80
2019-05-26T10:26:09.807Z,65.79
2019-05-26T10:28:42.153Z,63.91
2019-05-26T10:31:14.584Z,63.37
2019-05-26T10:33:46.798Z,63.28
2019-05-26T10:36:19.066Z,61.27
2019-05-26T10:38:51.386Z,62.56
2019-05-26T10:41:23.757Z,61.66
2019-05-26T10:43:56.064Z,62.21
2019-05-26T10:46:28.525Z,60.21
2019-05-26T10:49:01.963Z,59.80
2019-05-26T10:51:35.051Z,59.02
2019-05-26T10:54:07.394Z,58.33
2019-05-26T10:56:39.636Z,58.22
2019-05-26T10:59:12.022Z,57.56
2019-05-26T11:01:44.353Z,56.98
2019-05-26T11:04:16.791Z,56.19
2019-05-26T11:06:48.981Z,56.45
2019-05-26T11:09:21.390Z,55.57
2019-05-26T11:11:53.555Z,56.37
2019-05-26T11:14:25.897Z,55.89
2019-05-26T11:16:58.043Z,56.83
2019-05-26T11:19:31.268Z,55.73
2019-05-26T11:22:04.559Z,55.67
2019-05-26T11:24:36.787Z,56.52
2019-05-26T11:27:12.402Z,56.76
2019-05-26T11:29:43.025Z,56.34
2019-05-26T11:32:15.292Z,55.01
2019-05-26T11:35:00.671Z,55.04
2019-05-26T11:37:21.827Z,54.49
2019-05-26T11:39:54.963Z,56.25
2019-05-26T11:42:27.064Z,56.18
2019-05-26T11:44:59.419Z,57.02
2019-05-26T11:47:31.991Z,58.62
2019-05-26T11:50:07.021Z,58.69
2019-05-26T11:52:40.292Z,58.12
2019-05-26T11:55:13.051Z,58.98
2019-05-26T11:57:45.398Z,57.93
2019-05-26T12:00:19.638Z,58.25
2019-05-26T12:02:51.875Z,58.05
2019-05-26T12:05:24.410Z,58.79
2019-05-26T12:07:56.621Z,60.15
2019-05-26T12:10:28.908Z,61.20
2019-05-26T12:13:01.264Z,60.15
2019-05-26T12:15:33.607Z,57.55
2019-05-26T12:18:06.521Z,56.27
2019-05-26T12:20:39.933Z,55.94
2019-05-26T12:23:12.385Z,55.24
2019-05-26T12:25:44.568Z,55.91
2019-05-26T12:28:16.798Z,55.55
2019-05-26T12:30:49.244Z,56.14
2019-05-26T12:33:21.556Z,55.92
2019-05-26T12:35:54.183Z,55.17
2019-05-26T12:38:26.434Z,54.84
2019-05-26T12:40:59.583Z,55.35
2019-05-26T12:43:31.976Z,55.88
2019-05-26T12:46:04.302Z,55.23
2019-05-26T12:48:36.709Z,55.94
2019-05-26T12:51:09.992Z,56.64
2019-05-26T12:53:42.094Z,58.01
2019-05-26T12:56:14.387Z,58.91
2019-05-26T12:58:46.599Z,58.84
2019-05-26T13:01:19.025Z,59.76
2019-05-26T13:03:51.267Z,59.52
2019-05-26T13:06:23.636Z,58.61
2019-05-26T13:08:55.991Z,57.79
2019-05-26T13:11:28.324Z,58.88
2019-05-26T13:14:00.580Z,59.25
2019-05-26T13:16:35.830Z,57.76
2019-05-26T13:19:06.778Z,55.73
2019-05-26T13:21:39.338Z,53.89
2019-05-26T13:24:11.605Z,53.07
2019-05-26T13:26:43.757Z,53.22
2019-05-26T13:29:15.962Z,53.84
2019-05-26T13:31:48.271Z,53.75
2019-05-26T13:34:20.689Z,54.20
2019-05-26T13:36:53.076Z,52.76
2019-05-26T13:39:25.873Z,52.65
2019-05-26T13:41:58.151Z,53.51
2019-05-26T13:44:30.656Z,54.75
2019-05-26T13:47:04.058Z,56.04
2019-05-26T13:49:36.458Z,56.19
2019-05-26T13:52:08.739Z,56.30
2019-05-26T13:54:40.804Z,56.29
2019-05-26T13:57:13.078Z,57.11
2019-05-26T13:59:45.450Z,58.31
2019-05-26T14:02:17.912Z,60.27
2019-05-26T14:04:50.181Z,61.60
2019-05-26T14:07:22.438Z,64.71
2019-05-26T14:09:54.671Z,68.83
2019-05-26T14:12:27.162Z,74.80
2019-05-26T14:14:59.393Z,77.17
2019-05-26T14:17:33.552Z,76.71
2019-05-26T14:20:07.392Z,77.27
2019-05-26T14:22:39.727Z,77.23
2019-05-26T14:25:15.360Z,77.33
2019-05-26T14:27:45.840Z,78.18
2019-05-26T14:30:18.064Z,79.01
2019-05-26T14:32:50.809Z,77.73
2019-05-26T14:35:23.263Z,77.29
2019-05-26T14:37:55.616Z,76.25
2019-05-26T14:40:27.901Z,76.14
2019-05-26T14:43:00.330Z,74.78
2019-05-26T14:45:32.565Z,72.75
2019-05-26T14:48:06.020Z,70.44
2019-05-26T14:50:40.598Z,66.27
2019-05-26T14:53:13.247Z,64.97
2019-05-26T14:55:45.423Z,62.12
2019-05-26T14:58:17.749Z,58.78
2019-05-26T15:00:49.986Z,56.65
2019-05-26T15:03:22.353Z,54.34
2019-05-26T15:06:05.477Z,53.55
2019-05-26T15:08:28.578Z,53.21
2019-05-26T15:11:00.899Z,53.95
2019-05-26T15:13:33.168Z,52.77
2019-05-26T15:16:10.019Z,50.38
2019-05-26T15:18:39.791Z,52.66
2019-05-26T15:21:13.233Z,52.53
2019-05-26T15:23:45.415Z,54.66
2019-05-26T15:26:17.701Z,57.12
2019-05-26T15:28:49.892Z,58.10
2019-05-26T15:31:22.150Z,59.22
2019-05-26T15:33:55.605Z,59.65
2019-05-26T15:36:27.937Z,59.97
2019-05-26T15:39:00.460Z,59.25
2019-05-26T15:41:32.762Z,59.18
2019-05-26T15:44:04.957Z,59.70
2019-05-26T15:46:37.385Z,60.61
2019-05-26T15:49:09.657Z,61.39
2019-05-26T15:51:42.062Z,61.16
2019-05-26T15:54:14.295Z,61.96
2019-05-26T15:56:46.541Z,62.10
2019-05-26T15:59:18.877Z,62.42
2019-05-26T16:01:51.921Z,62.74
2019-05-26T16:04:24.303Z,62.15
2019-05-26T16:06:56.616Z,62.85
2019-05-26T16:09:29.103Z,62.97
2019-05-26T16:12:01.491Z,61.72
2019-05-26T16:14:33.801Z,62.07
2019-05-26T16:17:06.052Z,61.47
2019-05-26T16:19:38.330Z,61.86
2019-05-26T16:22:11.505Z,62.06
2019-05-26T16:24:45.240Z,61.37
2019-05-26T16:27:19.473Z,61.30
2019-05-26T16:29:52.274Z,61.69
2019-05-26T16:32:25.469Z,61.67
2019-05-26T16:34:57.821Z,61.47
2019-05-26T16:37:31.205Z,61.63
2019-05-26T16:40:04.134Z,61.43
2019-05-26T16:42:36.219Z,60.67
2019-05-26T16:45:09.256Z,61.38
2019-05-26T16:47:41.354Z,61.52
2019-05-26T16:50:13.667Z,61.27
2019-05-26T16:52:45.951Z,61.09
2019-05-26T16:55:18.331Z,61.22
2019-05-26T16:57:50.839Z,61.32
2019-05-26T17:00:23.165Z,61.20
2019-05-26T17:02:56.527Z,61.39
2019-05-26T17:05:28.917Z,61.38
2019-05-26T17:08:01.298Z,61.30
2019-05-26T17:10:34.879Z,61.20
2019-05-26T17:13:07.194Z,60.81
2019-05-26T17:15:39.575Z,60.35
2019-05-26T17:18:11.743Z,60.12
2019-05-26T17:20:46.891Z,60.80
2019-05-26T17:23:21.442Z,60.79
2019-05-26T17:25:53.893Z,61.06
2019-05-26T17:28:26.262Z,61.05
2019-05-26T17:30:58.454Z,61.13
2019-05-26T17:33:30.810Z,60.86
2019-05-26T17:36:03.173Z,61.03
2019-05-26T17:38:35.743Z,61.27
2019-05-26T17:41:08.052Z,60.93
2019-05-26T17:43:40.268Z,60.96
2019-05-26T17:46:15.116Z,60.88
2019-05-26T17:48:46.666Z,60.91
2019-05-26T17:51:19.288Z,60.94
2019-05-26T17:53:52.020Z,61.13
2019-05-26T17:56:24.439Z,61.25
2019-05-26T17:58:57.132Z,61.15
2019-05-26T18:01:29.639Z,60.80
2019-05-26T18:04:03.398Z,60.86
2019-05-26T18:06:38.986Z,60.93
2019-05-26T18:09:11.369Z,61.17
2019-05-26T18:11:43.863Z,61.17
2019-05-26T18:14:16.693Z,61.30
2019-05-26T18:16:49.199Z,61.12
2019-05-26T18:19:21.633Z,60.98
2019-05-26T18:21:54.450Z,61.15
2019-05-26T18:24:27.142Z,61.09
2019-05-26T18:26:59.455Z,61.47
2019-05-26T18:29:31.886Z,61.84
2019-05-26T18:32:04.474Z,61.98
2019-05-26T18:34:36.740Z,61.92
2019-05-26T18:37:09.105Z,61.72
2019-05-26T18:39:41.305Z,62.00
2019-05-26T18:42:13.593Z,61.76
2019-05-26T18:44:45.781Z,61.59
2019-05-26T18:47:18.408Z,61.50
2019-05-26T18:49:50.775Z,61.42
2019-05-26T18:52:23.156Z,61.20
2019-05-26T18:54:55.718Z,61.73
2019-05-26T18:57:27.989Z,61.21
2019-05-26T19:00:00.361Z,61.75
2019-05-26T19:02:32.701Z,61.27
2019-05-26T19:05:06.120Z,60.83
2019-05-26T19:07:38.677Z,60.98
2019-05-26T19:10:11.193Z,60.28
2019-05-26T19:12:43.775Z,60.69
2019-05-26T19:15:17.255Z,60.56
2019-05-26T19:17:49.618Z,60.19
2019-05-26T19:20:21.817Z,59.62
2019-05-26T19:22:58.561Z,59.54
2019-05-26T19:25:30.887Z,59.91
2019-05-26T19:28:03.295Z,59.85
2019-05-26T19:30:35.587Z,59.48
2019-05-26T19:33:07.844Z,59.26
2019-05-26T19:35:40.174Z,59.19
2019-05-26T19:38:12.948Z,57.97
2019-05-26T19:40:45.367Z,57.65
2019-05-26T19:43:17.742Z,57.52
2019-05-26T19:45:49.929Z,57.10
2019-05-26T19:48:34.912Z,57.10
2019-05-26T19:51:00.867Z,56.39
2019-05-26T19:53:33.346Z,56.02
2019-05-26T19:56:06.820Z,55.21
2019-05-26T19:58:39.208Z,55.11
2019-05-26T20:01:11.555Z,54.96
2019-05-26T20:03:44.871Z,54.72
2019-05-26T20:06:17.104Z,52.78
2019-05-26T20:08:49.546Z,53.04
2019-05-26T20:11:21.794Z,52.50
2019-05-26T20:13:54.075Z,53.04
2019-05-26T20:16:26.268Z,53.46
2019-05-26T20:18:58.503Z,53.33
2019-05-26T20:21:30.857Z,53.44
2019-05-26T20:24:03.133Z,53.48
2019-05-26T20:26:35.367Z,53.52
2019-05-26T20:29:07.604Z,53.08
2019-05-26T20:31:39.871Z,52.79
2019-05-26T20:34:12.191Z,52.35
2019-05-26T20:36:44.529Z,52.28
2019-05-26T20:39:16.873Z,52.67
2019-05-26T20:41:49.141Z,51.66
2019-05-26T20:44:21.351Z,51.45
2019-05-26T20:46:53.649Z,51.46
2019-05-26T20:49:25.920Z,51.36
2019-05-26T20:51:58.189Z,51.45
2019-05-26T20:54:30.464Z,51.11
2019-05-26T20:57:02.941Z,50.92
2019-05-26T20:59:35.268Z,50.95
2019-05-26T21:02:07.745Z,50.60
2019-05-26T21:04:41.065Z,50.34
2019-05-26T21:07:13.258Z,50.47
2019-05-26T21:09:45.779Z,50.77
2019-05-26T21:12:18.089Z,50.73
2019-05-26T21:14:50.590Z,50.88
2019-05-26T21:17:22.839Z,50.80
2019-05-26T21:19:55.300Z,50.99
2019-05-26T21:22:27.571Z,51.09
2019-05-26T21:25:03.226Z,51.40
2019-05-26T21:27:37.089Z,51.44
2019-05-26T21:30:10.759Z,51.59
2019-05-26T21:32:42.947Z,51.71
2019-05-26T21:35:15.342Z,52.07
2019-05-26T21:37:47.829Z,52.17
2019-05-26T21:40:20.327Z,52.80
2019-05-26T21:42:52.663Z,52.47
2019-05-26T21:45:24.996Z,52.60
2019-05-26T21:47:57.306Z,52.41
2019-05-26T21:50:29.553Z,52.60
2019-05-26T21:53:01.832Z,52.55
2019-05-26T21:55:34.076Z,52.80
2019-05-26T21:58:06.422Z,52.68
2019-05-26T22:00:43.812Z,53.08
2019-05-26T22:03:17.743Z,53.10
2019-05-26T22:05:50.037Z,53.00
2019-05-26T22:08:22.344Z,52.96
2019-05-26T22:10:54.735Z,53.07
2019-05-26T22:13:27.155Z,53.22
2019-05-26T22:15:59.591Z,53.67
2019-05-26T22:18:31.856Z,53.83
2019-05-26T22:21:04.304Z,53.94
2019-05-26T22:23:36.607Z,53.98
2019-05-26T22:26:08.983Z,53.96
2019-05-26T22:28:41.178Z,53.89
2019-05-26T22:31:14.384Z,54.10
2019-05-26T22:33:46.611Z,54.07
2019-05-26T22:36:19.053Z,54.02
2019-05-26T22:38:51.216Z,54.11
2019-05-26T22:41:23.434Z,54.20
2019-05-26T22:43:55.700Z,54.25
2019-05-26T22:46:28.083Z,54.35
2019-05-26T22:49:01.141Z,54.65
2019-05-26T22:51:33.454Z,54.79
2019-05-26T22:54:06.873Z,54.84
2019-05-26T22:56:40.301Z,54.84
2019-05-26T22:59:12.666Z,55.06
2019-05-26T23:01:44.997Z,55.17
2019-05-26T23:04:17.231Z,55.28
2019-05-26T23:06:50.690Z,55.32
2019-05-26T23:09:22.885Z,55.65
2019-05-26T23:11:55.399Z,55.68
2019-05-26T23:14:27.638Z,55.32
2019-05-26T23:17:00.160Z,55.64
2019-05-26T23:19:32.356Z,55.67
2019-05-26T23:22:04.826Z,55.61
2019-05-26T23:24:37.156Z,55.78
2019-05-26T23:27:09.489Z,55.87
2019-05-26T23:29:41.784Z,55.96
2019-05-26T23:32:14.201Z,55.99
2019-05-26T23:34:46.402Z,55.98
2019-05-26T23:37:18.757Z,56.37
2019-05-26T23:39:51.188Z,56.65
2019-05-26T23:42:23.581Z,56.71
2019-05-26T23:44:57.057Z,56.95
2019-05-26T23:47:29.483Z,57.13
2019-05-26T23:50:02.813Z,57.03
2019-05-26T23:52:35.249Z,57.34
2019-05-26T23:55:08.188Z,57.30
2019-05-26T23:57:40.546Z,57.36
